createdAt,value
2023-01-08T00:00:59.393Z,12.77
2023-01-08T00:03:26.980Z,12.12
2023-01-08T00:05:54.506Z,12.32
2023-01-08T00:08:23.366Z,12.87
2023-01-08T00:10:54.882Z,12.65
2023-01-08T00:13:22.322Z,12.91
2023-01-08T00:15:49.906Z,12.12
2023-01-08T00:18:17.455Z,12.46
2023-01-08T00:20:45.209Z,12.76
2023-01-08T00:23:12.810Z,12.71
2023-01-08T00:25:41.697Z,12.26
2023-01-08T00:28:09.395Z,12.37
2023-01-08T00:30:37.060Z,12.11
2023-01-08T00:33:04.933Z,12.28
2023-01-08T00:35:32.437Z,12.35
2023-01-08T00:37:59.933Z,12.24
2023-01-08T00:40:27.403Z,12.83
2023-01-08T00:42:56.292Z,12.24
2023-01-08T00:45:23.855Z,12.58
2023-01-08T00:47:51.412Z,12.62
2023-01-08T00:50:18.895Z,12.43
2023-01-08T00:52:46.427Z,12.77
2023-01-08T00:55:13.894Z,12.47
2023-01-08T00:57:41.588Z,12.76
2023-01-08T01:00:12.581Z,12.66
2023-01-08T01:02:40.537Z,12.58
2023-01-08T01:05:08.981Z,12.73
2023-01-08T01:07:36.489Z,12.59
2023-01-08T01:10:04.237Z,12.70
2023-01-08T01:12:31.728Z,12.68
2023-01-08T01:14:59.281Z,12.74
2023-01-08T01:17:28.117Z,12.26
2023-01-08T01:19:55.726Z,12.31
2023-01-08T01:22:23.264Z,12.66
2023-01-08T01:24:50.758Z,12.72
2023-01-08T01:27:18.227Z,12.14
2023-01-08T01:29:45.702Z,12.47
2023-01-08T01:32:13.212Z,12.54
2023-01-08T01:34:42.073Z,12.73
2023-01-08T01:37:10.187Z,12.54
2023-01-08T01:39:37.643Z,12.58
2023-01-08T01:42:05.178Z,12.18
2023-01-08T01:44:34.674Z,12.64
2023-01-08T01:47:02.295Z,12.23
2023-01-08T01:49:29.826Z,12.49
2023-01-08T01:52:00.966Z,12.46
2023-01-08T01:54:28.568Z,12.43
2023-01-08T01:56:56.071Z,11.83
2023-01-08T01:59:23.614Z,12.36
2023-01-08T02:01:51.428Z,12.24
2023-01-08T02:04:19.079Z,12.41
2023-01-08T02:06:47.574Z,12.39
2023-01-08T02:09:19.176Z,12.62
2023-01-08T02:11:47.903Z,11.96
2023-01-08T02:14:18.201Z,12.28
2023-01-08T02:16:47.493Z,12.52
2023-01-08T02:19:21.197Z,12.42
2023-01-08T02:21:52.697Z,12.74
2023-01-08T02:24:25.379Z,12.87
2023-01-08T02:26:54.519Z,12.31
2023-01-08T02:29:22.896Z,12.81
2023-01-08T02:31:50.436Z,12.46
2023-01-08T02:34:17.990Z,12.22
2023-01-08T02:36:45.825Z,12.55
2023-01-08T02:39:18.038Z,12.05
2023-01-08T02:41:58.378Z,12.46
2023-01-08T02:44:27.915Z,12.45
2023-01-08T02:46:55.452Z,12.37
2023-01-08T02:49:23.003Z,12.02
2023-01-08T02:51:50.965Z,12.18
2023-01-08T02:54:19.487Z,12.51
2023-01-08T02:56:47.943Z,12.45
2023-01-08T02:59:16.842Z,12.47
2023-01-08T03:01:45.216Z,12.56
2023-01-08T03:04:15.033Z,12.64
2023-01-08T03:06:42.607Z,12.57
2023-01-08T03:09:10.155Z,12.91
2023-01-08T03:11:39.187Z,12.60
2023-01-08T03:14:08.563Z,12.64
2023-01-08T03:16:38.147Z,12.04
2023-01-08T03:19:07.419Z,12.07
2023-01-08T03:21:35.043Z,12.56
2023-01-08T03:24:02.625Z,12.42
2023-01-08T03:26:30.172Z,12.81
2023-01-08T03:28:57.624Z,12.67
2023-01-08T03:31:25.988Z,12.51
2023-01-08T03:33:54.863Z,12.38
2023-01-08T03:36:22.982Z,12.29
2023-01-08T03:38:51.427Z,12.77
2023-01-08T03:41:20.168Z,12.72
2023-01-08T03:43:47.725Z,12.75
2023-01-08T03:46:16.524Z,12.37
2023-01-08T03:48:44.168Z,12.51
2023-01-08T03:51:13.067Z,12.36
2023-01-08T03:53:40.536Z,12.60
2023-01-08T03:56:08.413Z,12.92
2023-01-08T03:58:35.915Z,12.78
2023-01-08T04:01:03.761Z,12.44
2023-01-08T04:03:31.496Z,12.59
2023-01-08T04:06:00.479Z,12.94
2023-01-08T04:08:29.516Z,12.95
2023-01-08T04:10:57.219Z,12.80
2023-01-08T04:13:24.938Z,12.59
2023-01-08T04:15:52.984Z,12.72
2023-01-08T04:18:20.687Z,12.76
2023-01-08T04:20:48.952Z,12.59
2023-01-08T04:23:16.725Z,12.28
2023-01-08T04:25:45.817Z,12.22
2023-01-08T04:28:13.531Z,12.22
2023-01-08T04:30:41.252Z,11.86
2023-01-08T04:33:09.075Z,12.11
2023-01-08T04:35:36.894Z,11.51
2023-01-08T04:38:04.614Z,11.75
2023-01-08T04:40:34.042Z,11.97
2023-01-08T04:43:03.083Z,11.21
2023-01-08T04:45:30.793Z,11.91
2023-01-08T04:47:59.254Z,11.35
2023-01-08T04:50:28.149Z,11.02
2023-01-08T04:52:55.974Z,11.60
2023-01-08T04:55:23.678Z,10.68
2023-01-08T04:57:51.349Z,11.58
2023-01-08T05:00:20.547Z,11.29
2023-01-08T05:02:48.319Z,11.33
2023-01-08T05:05:16.104Z,11.24
2023-01-08T05:07:43.833Z,11.37
2023-01-08T05:10:11.579Z,11.56
2023-01-08T05:12:39.227Z,11.47
2023-01-08T05:15:07.790Z,11.63
2023-01-08T05:17:36.891Z,11.56
2023-01-08T05:20:04.729Z,11.31
2023-01-08T05:22:32.465Z,11.26
2023-01-08T05:25:00.204Z,11.43
2023-01-08T05:27:29.415Z,11.32
2023-01-08T05:29:57.152Z,11.19
2023-01-08T05:32:24.848Z,11.27
2023-01-08T05:34:53.877Z,11.52
2023-01-08T05:37:21.674Z,11.43
2023-01-08T05:39:49.333Z,11.44
2023-01-08T05:42:16.996Z,11.02
2023-01-08T05:44:44.787Z,11.26
2023-01-08T05:47:12.487Z,11.25
2023-01-08T05:49:40.228Z,10.89
2023-01-08T05:52:09.339Z,11.04
2023-01-08T05:54:37.097Z,11.20
2023-01-08T05:57:04.884Z,10.96
2023-01-08T05:59:32.593Z,10.58
2023-01-08T06:02:00.284Z,11.00
2023-01-08T06:04:28.100Z,10.30
2023-01-08T06:06:55.848Z,10.96
2023-01-08T06:09:24.907Z,11.16
2023-01-08T06:11:53.102Z,10.82
2023-01-08T06:14:20.889Z,10.26
2023-01-08T06:16:48.579Z,11.20
2023-01-08T06:19:18.886Z,11.12
2023-01-08T06:21:46.668Z,11.23
2023-01-08T06:24:14.288Z,11.29
2023-01-08T06:26:43.337Z,11.54
2023-01-08T06:29:11.017Z,11.52
2023-01-08T06:31:38.776Z,11.38
2023-01-08T06:34:06.500Z,10.71
2023-01-08T06:36:34.165Z,11.19
2023-01-08T06:39:01.890Z,11.32
2023-01-08T06:41:29.575Z,10.99
2023-01-08T06:43:58.594Z,10.94
2023-01-08T06:46:26.320Z,11.04
2023-01-08T06:48:53.986Z,10.76
2023-01-08T06:51:21.617Z,11.17
2023-01-08T06:53:49.579Z,11.08
2023-01-08T06:56:17.332Z,11.29
2023-01-08T06:58:45.076Z,11.22
2023-01-08T07:01:16.467Z,10.80
2023-01-08T07:03:44.781Z,10.52
2023-01-08T07:06:15.997Z,10.69
2023-01-08T07:08:43.713Z,10.75
2023-01-08T07:11:11.417Z,10.78
2023-01-08T07:13:39.086Z,10.92
2023-01-08T07:16:08.248Z,10.98
2023-01-08T07:18:37.813Z,10.80
2023-01-08T07:21:06.933Z,10.99
2023-01-08T07:23:34.710Z,11.38
2023-01-08T07:26:02.660Z,10.83
2023-01-08T07:28:30.754Z,11.02
2023-01-08T07:30:58.694Z,11.08
2023-01-08T07:33:26.425Z,10.93
2023-01-08T07:35:56.118Z,11.47
2023-01-08T07:38:24.446Z,11.25
2023-01-08T07:40:52.167Z,11.03
2023-01-08T07:43:19.967Z,10.95
2023-01-08T07:45:47.700Z,10.87
2023-01-08T07:48:16.495Z,10.36
2023-01-08T07:50:44.577Z,10.42
2023-01-08T07:53:17.092Z,10.61
2023-01-08T07:55:44.926Z,10.50
2023-01-08T07:58:13.979Z,10.28
2023-01-08T08:00:41.999Z,10.45
2023-01-08T08:03:11.455Z,9.82
2023-01-08T08:05:39.976Z,10.21
2023-01-08T08:08:11.338Z,10.07
2023-01-08T08:10:41.333Z,10.06
2023-01-08T08:13:09.439Z,10.10
2023-01-08T08:15:37.948Z,10.16
2023-01-08T08:18:06.052Z,10.11
2023-01-08T08:20:33.859Z,10.06
2023-01-08T08:23:02.569Z,9.96
2023-01-08T08:25:30.226Z,10.02
2023-01-08T08:27:59.606Z,10.06
2023-01-08T08:30:27.888Z,10.12
2023-01-08T08:32:56.471Z,9.82
2023-01-08T08:35:24.143Z,10.08
2023-01-08T08:37:51.850Z,9.97
2023-01-08T08:40:19.710Z,10.13
2023-01-08T08:42:47.580Z,10.24
2023-01-08T08:45:16.703Z,10.22
2023-01-08T08:47:44.437Z,10.19
2023-01-08T08:50:12.124Z,10.35
2023-01-08T08:52:39.907Z,10.21
2023-01-08T08:55:08.065Z,10.28
2023-01-08T08:57:35.727Z,10.05
2023-01-08T09:00:03.505Z,10.04
2023-01-08T09:02:32.821Z,10.38
2023-01-08T09:05:00.577Z,10.44
2023-01-08T09:07:28.298Z,10.18
2023-01-08T09:09:55.985Z,10.05
2023-01-08T09:12:23.662Z,10.39
2023-01-08T09:14:51.815Z,10.03
2023-01-08T09:17:21.397Z,10.30
2023-01-08T09:19:50.452Z,10.30
2023-01-08T09:22:18.187Z,10.36
2023-01-08T09:24:45.899Z,9.99
2023-01-08T09:27:13.763Z,10.64
2023-01-08T09:29:41.811Z,10.03
2023-01-08T09:32:10.490Z,10.37
2023-01-08T09:34:38.314Z,9.84
2023-01-08T09:37:07.661Z,10.44
2023-01-08T09:39:35.423Z,9.87
2023-01-08T09:42:04.950Z,10.30
2023-01-08T09:44:37.206Z,10.82
2023-01-08T09:47:05.981Z,10.61
2023-01-08T09:49:38.948Z,10.45
2023-01-08T09:52:09.911Z,10.40
2023-01-08T09:54:37.648Z,10.99
2023-01-08T09:57:05.569Z,10.92
2023-01-08T09:59:33.277Z,10.43
2023-01-08T10:02:01.129Z,10.70
2023-01-08T10:04:31.142Z,11.10
2023-01-08T10:07:01.947Z,11.00
2023-01-08T10:09:32.463Z,10.46
2023-01-08T10:12:02.450Z,10.72
2023-01-08T10:14:32.182Z,10.95
2023-01-08T10:17:02.737Z,10.98
2023-01-08T10:19:30.715Z,11.07
2023-01-08T10:21:58.722Z,10.39
2023-01-08T10:24:35.214Z,10.79
2023-01-08T10:27:10.226Z,10.73
2023-01-08T10:29:39.821Z,10.22
2023-01-08T10:32:10.770Z,10.58
2023-01-08T10:34:44.902Z,10.50
2023-01-08T10:37:18.825Z,10.69
2023-01-08T10:39:48.652Z,10.52
2023-01-08T10:42:18.816Z,10.65
2023-01-08T10:44:56.151Z,10.94
2023-01-08T10:47:25.118Z,11.43
2023-01-08T10:49:52.830Z,11.14
2023-01-08T10:52:26.900Z,10.93
2023-01-08T10:54:56.500Z,11.09
2023-01-08T10:57:26.676Z,11.10
2023-01-08T10:59:54.488Z,11.16
2023-01-08T11:02:33.138Z,11.10
2023-01-08T11:05:01.567Z,11.12
2023-01-08T11:07:29.670Z,11.13
2023-01-08T11:09:58.773Z,11.53
2023-01-08T11:12:35.747Z,12.13
2023-01-08T11:15:04.983Z,12.31
2023-01-08T11:17:33.604Z,12.06
2023-01-08T11:20:17.865Z,12.15
2023-01-08T11:22:45.572Z,12.09
2023-01-08T11:25:16.279Z,12.10
2023-01-08T11:27:45.748Z,12.25
2023-01-08T11:30:15.396Z,12.75
2023-01-08T11:32:47.230Z,12.79
2023-01-08T11:35:19.111Z,12.74
2023-01-08T11:37:51.411Z,12.07
2023-01-08T11:40:30.026Z,11.98
2023-01-08T11:43:06.377Z,12.29
2023-01-08T11:45:43.733Z,12.03
2023-01-08T11:48:24.381Z,11.77
2023-01-08T11:51:04.404Z,11.56
2023-01-08T11:53:37.258Z,11.58
2023-01-08T11:56:15.666Z,11.74
2023-01-08T11:58:52.787Z,11.60
2023-01-08T12:01:41.866Z,11.03
2023-01-08T12:04:37.473Z,11.17
2023-01-08T12:07:11.360Z,11.74
2023-01-08T12:09:42.451Z,11.21
2023-01-08T12:12:20.436Z,11.84
2023-01-08T12:14:56.692Z,11.63
2023-01-08T12:17:41.223Z,11.88
2023-01-08T12:20:19.107Z,12.20
2023-01-08T12:22:50.977Z,12.16
2023-01-08T12:25:38.926Z,11.78
2023-01-08T12:28:16.104Z,11.75
2023-01-08T12:30:51.870Z,11.78
2023-01-08T12:33:24.972Z,11.88
2023-01-08T12:35:55.933Z,11.85
2023-01-08T12:38:28.999Z,11.78
2023-01-08T12:40:59.490Z,11.94
2023-01-08T12:43:32.025Z,12.16
2023-01-08T12:46:00.937Z,11.78
2023-01-08T12:48:31.305Z,11.96
2023-01-08T12:51:03.196Z,12.01
2023-01-08T12:53:45.021Z,12.10
2023-01-08T12:56:15.630Z,12.44
2023-01-08T12:59:12.930Z,12.26
2023-01-08T13:01:46.671Z,12.10
2023-01-08T13:04:14.678Z,12.63
2023-01-08T13:06:51.460Z,12.63
2023-01-08T13:09:23.555Z,12.32
2023-01-08T13:11:53.956Z,12.51
2023-01-08T13:14:24.771Z,12.60
2023-01-08T13:17:03.818Z,12.38
2023-01-08T13:19:34.959Z,12.11
2023-01-08T13:22:03.349Z,12.67
2023-01-08T13:24:32.997Z,12.66
2023-01-08T13:27:12.166Z,12.59
2023-01-08T13:29:42.788Z,13.13
2023-01-08T13:32:30.730Z,12.58
2023-01-08T13:35:04.090Z,12.31
2023-01-08T13:37:31.734Z,12.17
2023-01-08T13:39:59.464Z,12.18
2023-01-08T13:42:28.787Z,12.28
2023-01-08T13:45:02.157Z,12.52
2023-01-08T13:47:32.742Z,12.26
2023-01-08T13:50:03.629Z,12.02
2023-01-08T13:52:34.376Z,11.98
2023-01-08T13:55:04.864Z,12.39
2023-01-08T13:57:38.008Z,12.59
2023-01-08T14:00:10.250Z,11.79
2023-01-08T14:02:50.092Z,12.21
2023-01-08T14:05:23.371Z,12.31
2023-01-08T14:07:51.165Z,12.53
2023-01-08T14:10:19.428Z,12.53
2023-01-08T14:12:47.362Z,11.96
2023-01-08T14:15:23.069Z,12.17
2023-01-08T14:17:50.984Z,11.77
2023-01-08T14:20:25.852Z,12.47
2023-01-08T14:22:53.652Z,12.40
2023-01-08T14:25:21.535Z,12.37
2023-01-08T14:27:57.043Z,11.56
2023-01-08T14:30:26.316Z,11.82
2023-01-08T14:32:55.348Z,12.10
2023-01-08T14:35:29.156Z,11.69
2023-01-08T14:37:57.169Z,11.90
2023-01-08T14:40:30.475Z,11.55
2023-01-08T14:42:59.743Z,11.92
2023-01-08T14:45:31.594Z,12.23
2023-01-08T14:48:01.464Z,12.12
2023-01-08T14:50:31.042Z,12.00
2023-01-08T14:53:00.214Z,12.13
2023-01-08T14:55:28.593Z,11.87
2023-01-08T14:57:57.223Z,12.10
2023-01-08T15:00:27.587Z,11.51
2023-01-08T15:02:56.874Z,12.05
2023-01-08T15:05:28.817Z,11.35
2023-01-08T15:08:00.607Z,11.22
2023-01-08T15:10:40.136Z,10.77
2023-01-08T15:13:08.552Z,11.48
2023-01-08T15:15:39.120Z,11.27
2023-01-08T15:18:10.245Z,11.14
2023-01-08T15:20:38.013Z,11.33
2023-01-08T15:23:05.719Z,11.22
2023-01-08T15:25:33.413Z,11.10
2023-01-08T15:28:02.421Z,11.02
2023-01-08T15:30:34.803Z,10.74
2023-01-08T15:33:18.997Z,10.92
2023-01-08T15:35:46.757Z,10.73
2023-01-08T15:38:14.540Z,10.50
2023-01-08T15:40:42.294Z,10.70
2023-01-08T15:43:11.592Z,10.69
2023-01-08T15:45:40.889Z,10.72
2023-01-08T15:48:11.582Z,10.53
2023-01-08T15:50:40.871Z,10.40
2023-01-08T15:53:13.011Z,10.45
2023-01-08T15:55:43.431Z,10.39
2023-01-08T15:58:12.817Z,10.20
2023-01-08T16:00:40.783Z,10.40
2023-01-08T16:03:09.892Z,10.16
2023-01-08T16:05:37.755Z,10.21
2023-01-08T16:08:06.012Z,10.17
2023-01-08T16:10:34.128Z,10.37
2023-01-08T16:13:02.366Z,10.05
2023-01-08T16:15:30.971Z,10.21
2023-01-08T16:17:59.389Z,10.15
2023-01-08T16:20:28.485Z,10.16
2023-01-08T16:22:57.206Z,10.22
2023-01-08T16:25:25.301Z,9.85
2023-01-08T16:27:53.147Z,10.12
2023-01-08T16:30:20.898Z,10.20
2023-01-08T16:32:52.208Z,10.09
2023-01-08T16:35:20.424Z,9.86
2023-01-08T16:37:49.566Z,9.81
2023-01-08T16:40:17.529Z,10.18
2023-01-08T16:42:45.190Z,10.09
2023-01-08T16:45:12.908Z,10.04
2023-01-08T16:47:40.921Z,10.10
2023-01-08T16:50:10.938Z,9.86
2023-01-08T16:52:38.896Z,10.00
2023-01-08T16:55:10.803Z,9.81
2023-01-08T16:57:38.507Z,10.12
2023-01-08T17:00:08.315Z,9.95
2023-01-08T17:02:36.033Z,9.97
2023-01-08T17:05:03.769Z,10.04
2023-01-08T17:07:31.487Z,9.94
2023-01-08T17:09:59.159Z,9.94
2023-01-08T17:12:29.708Z,10.02
2023-01-08T17:14:57.384Z,10.06
2023-01-08T17:17:24.994Z,9.79
2023-01-08T17:19:52.655Z,9.85
2023-01-08T17:22:20.360Z,9.73
2023-01-08T17:24:48.376Z,9.76
2023-01-08T17:27:16.048Z,9.76
2023-01-08T17:29:45.135Z,9.79
2023-01-08T17:32:14.203Z,9.78
2023-01-08T17:34:41.899Z,9.48
2023-01-08T17:37:09.631Z,9.48
2023-01-08T17:39:37.354Z,9.67
2023-01-08T17:42:22.886Z,9.44
2023-01-08T17:44:51.964Z,9.48
2023-01-08T17:47:20.954Z,9.46
2023-01-08T17:49:50.336Z,9.85
2023-01-08T17:52:18.112Z,9.60
2023-01-08T17:54:45.759Z,9.57
2023-01-08T17:57:13.469Z,9.32
2023-01-08T17:59:41.200Z,9.50
2023-01-08T18:02:13.406Z,9.53
2023-01-08T18:04:42.320Z,9.63
2023-01-08T18:07:10.103Z,9.45
2023-01-08T18:09:37.803Z,9.34
2023-01-08T18:12:05.923Z,9.57
2023-01-08T18:14:34.971Z,9.47
2023-01-08T18:17:02.657Z,9.52
2023-01-08T18:19:31.850Z,9.36
2023-01-08T18:21:59.666Z,9.65
2023-01-08T18:24:27.366Z,9.57
2023-01-08T18:26:55.054Z,9.48
2023-01-08T18:29:22.739Z,9.41
2023-01-08T18:31:50.482Z,9.56
2023-01-08T18:34:18.229Z,9.57
2023-01-08T18:36:47.416Z,9.24
2023-01-08T18:39:15.223Z,9.19
2023-01-08T18:42:00.704Z,9.08
2023-01-08T18:44:28.482Z,9.23
2023-01-08T18:46:56.133Z,9.40
2023-01-08T18:49:24.507Z,9.24
2023-01-08T18:51:53.575Z,9.34
2023-01-08T18:54:21.217Z,9.35
2023-01-08T18:56:51.021Z,9.30
2023-01-08T18:59:18.762Z,9.30
2023-01-08T19:01:46.455Z,9.47
2023-01-08T19:04:17.995Z,9.53
2023-01-08T19:06:45.694Z,9.43
2023-01-08T19:09:15.626Z,9.25
2023-01-08T19:11:43.968Z,9.69
2023-01-08T19:14:13.051Z,9.35
2023-01-08T19:16:41.377Z,9.58
2023-01-08T19:19:09.074Z,9.20
2023-01-08T19:21:36.763Z,9.16
2023-01-08T19:24:04.720Z,9.34
2023-01-08T19:26:33.761Z,9.44
2023-01-08T19:29:02.951Z,9.14
2023-01-08T19:31:31.893Z,9.49
2023-01-08T19:33:59.647Z,9.54
2023-01-08T19:36:27.769Z,9.23
2023-01-08T19:38:55.805Z,9.48
2023-01-08T19:41:41.171Z,9.63
2023-01-08T19:44:10.268Z,9.58
2023-01-08T19:46:38.271Z,9.48
2023-01-08T19:49:06.270Z,9.61
2023-01-08T19:51:34.789Z,9.65
2023-01-08T19:54:02.484Z,9.41
2023-01-08T19:56:30.704Z,9.65
2023-01-08T19:58:58.701Z,9.58
2023-01-08T20:01:28.725Z,9.50
2023-01-08T20:03:56.873Z,9.53
2023-01-08T20:06:26.423Z,9.55
2023-01-08T20:08:55.615Z,9.69
2023-01-08T20:11:24.234Z,9.51
2023-01-08T20:13:52.878Z,9.40
2023-01-08T20:16:21.819Z,9.69
2023-01-08T20:18:51.102Z,9.68
2023-01-08T20:21:20.882Z,9.53
2023-01-08T20:23:49.162Z,9.57
2023-01-08T20:26:19.233Z,9.63
2023-01-08T20:28:49.234Z,9.46
2023-01-08T20:31:19.175Z,9.52
2023-01-08T20:33:50.335Z,9.65
2023-01-08T20:36:19.440Z,9.50
2023-01-08T20:38:47.531Z,9.51
2023-01-08T20:41:15.154Z,9.44
2023-01-08T20:43:43.059Z,9.62
2023-01-08T20:46:13.688Z,9.65
2023-01-08T20:48:47.606Z,9.93
2023-01-08T20:51:17.477Z,9.82
2023-01-08T20:53:45.156Z,9.93
2023-01-08T20:56:14.421Z,9.77
2023-01-08T20:58:44.598Z,9.40
2023-01-08T21:01:14.098Z,9.80
2023-01-08T21:03:43.487Z,9.81
2023-01-08T21:06:12.953Z,9.58
2023-01-08T21:08:42.667Z,9.35
2023-01-08T21:11:11.531Z,9.35
2023-01-08T21:13:39.478Z,9.40
2023-01-08T21:16:10.749Z,9.44
2023-01-08T21:18:40.514Z,9.48
2023-01-08T21:21:08.705Z,9.24
2023-01-08T21:23:36.335Z,9.16
2023-01-08T21:26:07.013Z,9.32
2023-01-08T21:28:35.523Z,9.25
2023-01-08T21:31:05.622Z,9.13
2023-01-08T21:33:33.467Z,9.02
2023-01-08T21:36:04.109Z,8.95
2023-01-08T21:38:32.072Z,9.23
2023-01-08T21:41:00.538Z,9.37
2023-01-08T21:43:47.833Z,9.08
2023-01-08T21:46:16.385Z,9.47
2023-01-08T21:48:44.714Z,9.75
2023-01-08T21:51:26.241Z,9.63
2023-01-08T21:53:53.980Z,9.45
2023-01-08T21:56:22.030Z,9.49
2023-01-08T21:58:51.054Z,9.39
2023-01-08T22:01:18.984Z,9.62
2023-01-08T22:03:46.774Z,9.38
2023-01-08T22:06:14.484Z,9.64
2023-01-08T22:08:42.218Z,9.62
2023-01-08T22:11:10.887Z,9.49
2023-01-08T22:13:39.244Z,9.49
2023-01-08T22:16:10.865Z,9.28
2023-01-08T22:18:39.286Z,9.36
2023-01-08T22:21:08.722Z,9.52
2023-01-08T22:23:37.348Z,9.27
2023-01-08T22:26:05.578Z,9.94
2023-01-08T22:28:33.721Z,10.41
2023-01-08T22:31:05.679Z,10.45
2023-01-08T22:33:34.751Z,10.22
2023-01-08T22:36:03.250Z,10.22
2023-01-08T22:38:30.884Z,10.14
2023-01-08T22:40:58.714Z,10.13
2023-01-08T22:43:26.584Z,10.20
2023-01-08T22:45:54.544Z,10.44
2023-01-08T22:48:22.561Z,10.08
2023-01-08T22:50:51.833Z,10.00
2023-01-08T22:53:19.911Z,10.42
2023-01-08T22:55:49.137Z,10.15
2023-01-08T22:58:17.798Z,10.35
2023-01-08T23:00:45.666Z,10.38
2023-01-08T23:03:13.753Z,10.10
2023-01-08T23:05:41.575Z,10.46
2023-01-08T23:08:11.073Z,10.21
2023-01-08T23:10:38.979Z,10.48
2023-01-08T23:13:06.688Z,10.25
2023-01-08T23:15:34.476Z,10.25
2023-01-08T23:18:02.158Z,10.48
2023-01-08T23:20:29.894Z,10.57
2023-01-08T23:22:57.620Z,10.53
2023-01-08T23:25:27.818Z,10.87
2023-01-08T23:27:55.474Z,10.79
2023-01-08T23:30:23.180Z,10.57
2023-01-08T23:32:50.821Z,10.44
2023-01-08T23:35:18.955Z,10.33
2023-01-08T23:37:46.699Z,10.61
2023-01-08T23:40:14.859Z,10.70
2023-01-08T23:42:43.935Z,10.57
2023-01-08T23:45:12.300Z,10.87
2023-01-08T23:47:39.973Z,10.66
2023-01-08T23:50:09.207Z,10.68
2023-01-08T23:52:36.899Z,10.65
2023-01-08T23:55:05.034Z,10.76
2023-01-08T23:57:32.669Z,10.90
